Station Historical Data
Daily Summary for November 28, 2017 Units:  Metric    English   Both
« Previous Day
Next Day »
Daily Weekly Monthly Yearly Custom
  High: Low: Average:
Temperature: 18.5 °C -1.4 °C 9.6 °C
Dew Point: 4.2 °C -4 °C 0.6 °C
Humidity: 86% 36% 57%
Wind Speed: 30.6km/h 0km/h 8.2km/h
Wind Gust: 45.1km/h - -
Wind- - SSW
Pressure: 1022.2 hPa 1013.8 hPa -
Precipitation: 0 mm    
Historical Graphs
 
 
Tabular Data for November 28, 2017
Time Temperature Dew Point Pressure Wind Wind Speed Wind Gust Humidity Rainfall Rate (Hourly)
00:04 -1.3 °C -4 °C 1022.2 hPa East 1.6 km/h 8 km/h 82% 0 mm
00:09 -1.3 °C -4 °C 1022.2 hPa Calm   9.7 km/h 82% 0 mm
00:14 -1.3 °C -4 °C 1022.2 hPa Calm   3.2 km/h 82% 0 mm
00:19 -1.3 °C -3.8 °C 1022.2 hPa Calm   4.8 km/h 83% 0 mm
00:24 -1.4 °C -3.9 °C 1022.2 hPa Calm   1.6 km/h 83% 0 mm
00:29 -1.3 °C -3.8 °C 1022.2 hPa Calm   4.8 km/h 83% 0 mm
00:34 -1.3 °C -3.8 °C 1022.2 hPa Calm   4.8 km/h 83% 0 mm
00:39 -1.3 °C -3.8 °C 1021.9 hPa East 1.6 km/h 4.8 km/h 83% 0 mm
00:44 -1.2 °C -3.7 °C 1021.6 hPa East 1.6 km/h 4.8 km/h 83% 0 mm
00:49 -1.3 °C -3.8 °C 1021.6 hPa Calm   1.6 km/h 83% 0 mm
00:54 -1.2 °C -3.7 °C 1021.6 hPa Calm   4.8 km/h 83% 0 mm
00:59 -1.2 °C -3.7 °C 1021.6 hPa Calm   6.4 km/h 83% 0 mm
01:04 -1.2 °C -3.7 °C 1021.6 hPa Calm   6.4 km/h 83% 0 mm
01:09 -1.2 °C -3.7 °C 1021.6 hPa Calm     83% 0 mm
01:14 -1.1 °C -3.6 °C 1021.6 hPa Calm     83% 0 mm
01:19 -1.1 °C -3.6 °C 1021.6 hPa Calm   3.2 km/h 83% 0 mm
01:24 -1 °C -3.5 °C 1021.6 hPa Calm   1.6 km/h 83% 0 mm
01:29 -1 °C -3.5 °C 1021.6 hPa Calm     83% 0 mm
01:34 -0.9 °C -3.4 °C 1021.6 hPa Calm   1.6 km/h 83% 0 mm
01:39 -0.9 °C -3.4 °C 1021.6 hPa Calm   1.6 km/h 83% 0 mm
01:44 -0.9 °C -3.4 °C 1021.6 hPa Calm     83% 0 mm
01:49 -0.9 °C -3.4 °C 1021.6 hPa Calm     83% 0 mm
01:54 -0.9 °C -3.4 °C 1021.6 hPa Calm     83% 0 mm
01:59 -0.9 °C -3.4 °C 1021.6 hPa Calm     83% 0 mm
02:04 -0.9 °C -3.4 °C 1021.2 hPa Calm     83% 0 mm
02:09 -1 °C -3.5 °C 1021.6 hPa Calm     83% 0 mm
02:14 -1.1 °C -3.4 °C 1021.6 hPa Calm     84% 0 mm
02:19 -1.2 °C -3.5 °C 1021.2 hPa Calm     84% 0 mm
02:24 -1.2 °C -3.6 °C 1021.6 hPa Calm     84% 0 mm
02:29 -1.1 °C -3.4 °C 1021.2 hPa Calm     84% 0 mm
02:34 -1.2 °C -3.5 °C 1021.2 hPa Calm     84% 0 mm
02:39 -1.2 °C -3.5 °C 1021.6 hPa Calm     84% 0 mm
02:44 -1.2 °C -3.4 °C 1021.2 hPa Calm     85% 0 mm
02:49 -1.1 °C -3.3 °C 1021.2 hPa Calm     85% 0 mm
02:54 -0.9 °C -3.2 °C 1021.2 hPa Calm     85% 0 mm
02:59 -0.9 °C -3.1 °C 1021.2 hPa Calm   3.2 km/h 85% 0 mm
03:04 -0.7 °C -2.9 °C 1021.2 hPa Calm   1.6 km/h 85% 0 mm
03:09 -0.7 °C -3.1 °C 1020.9 hPa Calm   1.6 km/h 84% 0 mm
03:14 -0.6 °C -2.9 °C 1020.9 hPa Calm   1.6 km/h 84% 0 mm
03:19 -0.4 °C -2.8 °C 1020.9 hPa Calm     84% 0 mm
03:24 -0.3 °C -2.7 °C 1020.9 hPa Calm     84% 0 mm
03:29 -0.3 °C -2.7 °C 1020.9 hPa Calm     84% 0 mm
03:34 -0.2 °C -2.6 °C 1020.9 hPa Calm     84% 0 mm
03:39 -0.2 °C -2.6 °C 1020.9 hPa Calm     84% 0 mm
03:44 -0.2 °C -2.8 °C 1020.5 hPa Calm     83% 0 mm
03:49 -0.2 °C -2.6 °C 1020.5 hPa Calm     84% 0 mm
03:54 -0.2 °C -2.7 °C 1020.5 hPa Calm     83% 0 mm
03:59 -0.2 °C -2.6 °C 1020.5 hPa Calm     84% 0 mm
04:04 -0.2 °C -2.6 °C 1020.5 hPa Calm     84% 0 mm
04:09 -0.2 °C -2.6 °C 1020.5 hPa Calm     84% 0 mm
04:14 -0.2 °C -2.6 °C 1020.5 hPa Calm     84% 0 mm
04:19 -0.1 °C -2.4 °C 1020.5 hPa Calm     84% 0 mm
04:24 0 °C -2.4 °C 1020.5 hPa Calm     84% 0 mm
04:29 0.1 °C -2.3 °C 1020.5 hPa Calm     84% 0 mm
04:34 0.1 °C -2.3 °C 1020.5 hPa Calm     84% 0 mm
04:39 0.1 °C -2.3 °C 1020.5 hPa Calm     84% 0 mm
04:44 0 °C -2.4 °C 1020.5 hPa Calm     84% 0 mm
04:49 -0.1 °C -2.5 °C 1020.5 hPa Calm     84% 0 mm
04:54 -0.1 °C -2.5 °C 1020.5 hPa Calm     84% 0 mm
04:59 0.1 °C -2.1 °C 1020.5 hPa Calm     85% 0 mm
05:04 0.3 °C -1.9 °C 1020.5 hPa Calm     85% 0 mm
05:09 0.2 °C -2.2 °C 1020.5 hPa Calm     84% 0 mm
05:14 0.2 °C -2.2 °C 1020.5 hPa Calm     84% 0 mm
05:19 0 °C -2.4 °C 1020.5 hPa Calm     84% 0 mm
05:24 -0.2 °C -2.6 °C 1020.5 hPa Calm     84% 0 mm
05:29 -0.3 °C -2.7 °C 1020.5 hPa Calm     84% 0 mm
05:34 -0.2 °C -2.4 °C 1020.2 hPa Calm     85% 0 mm
05:39 -0.3 °C -2.5 °C 1020.2 hPa Calm     85% 0 mm
05:44 -0.2 °C -2.4 °C 1020.5 hPa Calm     85% 0 mm
05:49 -0.1 °C -2.1 °C 1020.5 hPa Calm   4.8 km/h 86% 0 mm
05:54 0.6 °C -1.5 °C 1020.5 hPa Calm   4.8 km/h 86% 0 mm
05:59 2.2 °C 0.1 °C 1020.5 hPa SSW 1.6 km/h 9.7 km/h 86% 0 mm
06:04 3.8 °C 1.1 °C 1020.5 hPa SSW 3.2 km/h 11.3 km/h 82% 0 mm
06:09 4.9 °C 1.2 °C 1020.2 hPa SSW 4.8 km/h 11.3 km/h 77% 0 mm
06:14 5.4 °C 1.2 °C 1020.2 hPa SSW 4.8 km/h 11.3 km/h 74% 0 mm
06:19 5.8 °C 1.1 °C 1020.2 hPa SSW 11.3 km/h 11.3 km/h 72% 0 mm
06:24 6.1 °C 1.1 °C 1020.2 hPa SSW 4.8 km/h 14.5 km/h 70% 0 mm
06:29 6.3 °C 1 °C 1020.2 hPa SSW 8 km/h 11.3 km/h 69% 0 mm
06:34 6.4 °C 0.9 °C 1020.2 hPa SSW 6.4 km/h 14.5 km/h 68% 0 mm
06:39 6.6 °C 1.1 °C 1020.2 hPa SSW 4.8 km/h 11.3 km/h 68% 0 mm
06:44 6.7 °C 0.9 °C 1020.2 hPa SW 6.4 km/h 16.1 km/h 67% 0 mm
06:49 6.8 °C 0.9 °C 1020.2 hPa SW 6.4 km/h 16.1 km/h 66% 0 mm
06:54 6.8 °C 0.9 °C 1020.2 hPa SSW 8 km/h 16.1 km/h 66% 0 mm
06:59 6.8 °C 0.9 °C 1020.5 hPa SSW 6.4 km/h 14.5 km/h 66% 0 mm
07:04 6.8 °C 0.9 °C 1020.2 hPa SSW 6.4 km/h 14.5 km/h 66% 0 mm
07:24 7.1 °C 0.9 °C 1020.2 hPa SSW 6.4 km/h 14.5 km/h 65% 0 mm
07:29 7.1 °C 0.9 °C 1020.2 hPa South 11.3 km/h 14.5 km/h 65% 0 mm
07:34 7.3 °C 0.9 °C 1020.2 hPa South 4.8 km/h 12.9 km/h 64% 0 mm
07:39 7.5 °C 0.9 °C 1020.2 hPa SSW 3.2 km/h 12.9 km/h 63% 0 mm
07:49 7.9 °C 1.1 °C 1020.2 hPa SW 4.8 km/h 17.7 km/h 62% 0 mm
07:54 8.2 °C 1.1 °C 1020.2 hPa SSW 8 km/h 17.7 km/h 61% 0 mm
07:59 8.5 °C 1.2 °C 1020.2 hPa SSW 9.7 km/h 24.1 km/h 60% 0 mm
08:04 8.8 °C 1.2 °C 1019.9 hPa SSW 11.3 km/h 24.1 km/h 59% 0 mm
08:09 8.9 °C 1.3 °C 1019.9 hPa SSW 11.3 km/h 25.7 km/h 59% 0 mm
08:19 9.2 °C 1.3 °C 1019.5 hPa South 9.7 km/h 19.3 km/h 58% 0 mm
08:24 9.3 °C 1.2 °C 1019.5 hPa SSW 11.3 km/h 25.7 km/h 57% 0 mm
08:34 9.8 °C 1.4 °C 1019.5 hPa SSW 6.4 km/h 32.2 km/h 56% 0 mm
08:44 10.2 °C 1.3 °C 1019.5 hPa SSE 8 km/h 24.1 km/h 54% 0 mm
08:49 10.3 °C 1.4 °C 1019.5 hPa SSW 4.8 km/h 19.3 km/h 54% 0 mm
08:54 10.6 °C 1.7 °C 1019.5 hPa South 17.7 km/h 30.6 km/h 54% 0 mm
08:59 10.8 °C 1.6 °C 1019.5 hPa SSW 11.3 km/h 32.2 km/h 53% 0 mm
09:04 11.1 °C 1.8 °C 1019.5 hPa SSW 12.9 km/h 32.2 km/h 53% 0 mm
09:09 11.3 °C 1.8 °C 1019.5 hPa SSW 12.9 km/h 27.4 km/h 52% 0 mm
09:14 11.4 °C 1.9 °C 1019.5 hPa SSW 12.9 km/h 27.4 km/h 52% 0 mm
09:19 11.6 °C 2 °C 1019.5 hPa SSW 12.9 km/h 27.4 km/h 52% 0 mm
09:34 12.1 °C 1.9 °C 1019.5 hPa SSW 22.5 km/h 29 km/h 50% 0 mm
09:49 12.6 °C 1.8 °C 1019.5 hPa SSW 16.1 km/h 22.5 km/h 48% 0 mm
09:59 12.8 °C 2.1 °C 1019.2 hPa SSW 12.9 km/h 29 km/h 48% 0 mm
10:04 13 °C 2.5 °C 1019.2 hPa SSW 11.3 km/h 29 km/h 49% 0 mm
10:09 13.3 °C 2.2 °C 1019.2 hPa SSW 11.3 km/h 29 km/h 47% 0 mm
10:19 13.7 °C 2.2 °C 1019.2 hPa SSW 9.7 km/h 20.9 km/h 46% 0 mm
10:24 13.9 °C 2.4 °C 1019.2 hPa SSW 11.3 km/h 30.6 km/h 46% 0 mm
10:29 14.1 °C 2.3 °C 1018.8 hPa SSW 11.3 km/h 30.6 km/h 45% 0 mm
10:39 14.4 °C 2.3 °C 1018.8 hPa South 4.8 km/h 22.5 km/h 44% 0 mm
10:49 14.8 °C 2.3 °C 1018.5 hPa SSW 22.5 km/h 24.1 km/h 43% 0 mm
10:54 14.8 °C 2.3 °C 1018.5 hPa SSE 14.5 km/h 24.1 km/h 43% 0 mm
11:04 15.1 °C 2.3 °C 1018.2 hPa SSW 22.5 km/h 29 km/h 42% 0 mm
11:09 15.2 °C 2.4 °C 1018.2 hPa SSW 14.5 km/h 29 km/h 42% 0 mm
11:14 15.4 °C 2.2 °C 1018.2 hPa WSW 16.1 km/h 30.6 km/h 41% 0 mm
11:20 15.6 °C 2.3 °C 1017.8 hPa SSW 14.5 km/h 30.6 km/h 41% 0 mm
11:29 15.9 °C 1.9 °C 1017.8 hPa SSW 12.9 km/h 29 km/h 39% 0 mm
11:34 16.1 °C 2.5 °C 1017.8 hPa SSW 12.9 km/h 27.4 km/h 40% 0 mm
11:39 16.2 °C 2.6 °C 1017.5 hPa SSW 12.9 km/h 27.4 km/h 40% 0 mm
11:54 16.3 °C 2.7 °C 1017.5 hPa SW 12.9 km/h 29 km/h 40% 0 mm
11:59 16.4 °C 2.1 °C 1017.2 hPa South 12.9 km/h 37 km/h 38% 0 mm
12:04 16.7 °C 2.3 °C 1017.2 hPa South 9.7 km/h 25.7 km/h 38% 0 mm
12:09 16.8 °C 2.4 °C 1017.2 hPa SSW 8 km/h 32.2 km/h 38% 0 mm
12:14 16.9 °C 2.9 °C 1017.2 hPa WSW 30.6 km/h 30.6 km/h 39% 0 mm
12:19 17 °C 2.6 °C 1017.2 hPa SSW 14.5 km/h 27.4 km/h 38% 0 mm
12:29 17.2 °C 2.4 °C 1017.2 hPa SSW 11.3 km/h 29 km/h 37% 0 mm
12:34 17.2 °C 2.7 °C 1017.2 hPa SSW 12.9 km/h 29 km/h 38% 0 mm
12:44 17.4 °C 2.9 °C 1016.8 hPa SSW 11.3 km/h 29 km/h 38% 0 mm
12:49 17.2 °C 3.1 °C 1016.8 hPa SSW 11.3 km/h 27.4 km/h 39% 0 mm
12:59 17.4 °C 2.9 °C 1016.8 hPa SSW 11.3 km/h 27.4 km/h 38% 0 mm
13:04 17.4 °C 2.6 °C 1016.8 hPa SSW 12.9 km/h 30.6 km/h 37% 0 mm
13:09 17.6 °C 3.1 °C 1016.5 hPa SSW 14.5 km/h 30.6 km/h 38% 0 mm
13:14 17.7 °C 2.8 °C 1016.5 hPa SW 12.9 km/h 24.1 km/h 37% 0 mm
13:34 18.1 °C 3.1 °C 1016.5 hPa SW 12.9 km/h 35.4 km/h 37% 0 mm
13:44 18.4 °C 4.2 °C 1016.1 hPa SSE 4.8 km/h 24.1 km/h 39% 0 mm
13:49 18.5 °C 3.5 °C 1016.1 hPa SW 12.9 km/h 27.4 km/h 37% 0 mm
13:59 18.4 °C 3.8 °C 1015.8 hPa SW 16.1 km/h 33.8 km/h 38% 0 mm
14:04 18.3 °C 3.4 °C 1016.1 hPa SW 16.1 km/h 35.4 km/h 37% 0 mm
14:19 18.3 °C 3.7 °C 1015.8 hPa SW 8 km/h 19.3 km/h 38% 0 mm
14:24 18.2 °C 3.6 °C 1015.8 hPa SW 19.3 km/h 29 km/h 38% 0 mm
14:29 18 °C 3.4 °C 1015.8 hPa SW 14.5 km/h 29 km/h 38% 0 mm
14:34 18.1 °C 3.9 °C 1015.5 hPa SW 12.9 km/h 27.4 km/h 39% 0 mm
14:39 17.9 °C 4.1 °C 1015.5 hPa SW 4.8 km/h 17.7 km/h 40% 0 mm
14:44 17.8 °C 3.7 °C 1015.5 hPa WSW 11.3 km/h 24.1 km/h 39% 0 mm
14:54 17.9 °C 3.7 °C 1015.5 hPa SW 8 km/h 14.5 km/h 39% 0 mm
15:04 18.1 °C 3.5 °C 1015.5 hPa SW 9.7 km/h 20.9 km/h 38% 0 mm
15:09 18.1 °C 3.2 °C 1015.5 hPa SW 11.3 km/h 19.3 km/h 37% 0 mm
15:14 18.1 °C 3.1 °C 1015.5 hPa SW 11.3 km/h 22.5 km/h 37% 0 mm
15:19 18.1 °C 2.8 °C 1015.5 hPa SSW 11.3 km/h 22.5 km/h 36% 0 mm
15:29 17.8 °C 2.9 °C 1015.5 hPa SW 8 km/h 19.3 km/h 37% 0 mm
15:34 17.6 °C 3.5 °C 1015.5 hPa WSW 4.8 km/h 12.9 km/h 39% 0 mm
15:39 17.2 °C 3.8 °C 1015.5 hPa SW 6.4 km/h 14.5 km/h 41% 0 mm
15:44 16.8 °C 4.1 °C 1015.5 hPa WSW 4.8 km/h 11.3 km/h 43% 0 mm
15:54 16.2 °C 3.9 °C 1015.1 hPa WSW 8 km/h 12.9 km/h 44% 0 mm
16:04 16 °C 3.7 °C 1015.1 hPa SW 6.4 km/h 12.9 km/h 44% 0 mm
16:09 16.3 °C 3.3 °C 1014.8 hPa SSW 6.4 km/h 14.5 km/h 42% 0 mm
16:14 16.7 °C 3 °C 1014.8 hPa SSW 8 km/h 16.1 km/h 40% 0 mm
16:19 16.8 °C 2.7 °C 1014.8 hPa SSW 12.9 km/h 19.3 km/h 39% 0 mm
16:24 16.9 °C 2.4 °C 1014.8 hPa SSW 11.3 km/h 25.7 km/h 38% 0 mm
16:34 16.8 °C 2.4 °C 1014.8 hPa SSW 8 km/h 19.3 km/h 38% 0 mm
16:39 16.4 °C 2.1 °C 1014.8 hPa South 4.8 km/h 14.5 km/h 38% 0 mm
16:44 16.4 °C 2.4 °C 1014.8 hPa South 9.7 km/h 16.1 km/h 39% 0 mm
16:49 16.3 °C 2.3 °C 1014.8 hPa SSW 6.4 km/h 16.1 km/h 39% 0 mm
16:54 16.2 °C 2.6 °C 1014.8 hPa SW 8 km/h 17.7 km/h 40% 0 mm
16:59 15.9 °C 2.3 °C 1014.8 hPa SSW 6.4 km/h 16.1 km/h 40% 0 mm
17:09 15.9 °C 2.3 °C 1014.8 hPa SSW 8 km/h 22.5 km/h 40% 0 mm
17:14 15.9 °C 2.3 °C 1014.8 hPa SSW 8 km/h 22.5 km/h 40% 0 mm
17:24 15.5 °C 2.3 °C 1014.8 hPa SSW 8 km/h 20.9 km/h 41% 0 mm
17:34 15.4 °C 2.2 °C 1014.4 hPa SSW 8 km/h 20.9 km/h 41% 0 mm
17:39 15.4 °C 2.2 °C 1014.4 hPa SSW 4.8 km/h 16.1 km/h 41% 0 mm
17:54 15.4 °C 2.2 °C 1014.4 hPa WSW 12.9 km/h 25.7 km/h 41% 0 mm
18:14 15.4 °C 2.2 °C 1014.1 hPa WSW 11.3 km/h 25.7 km/h 41% 0 mm
18:19 15.5 °C 2.3 °C 1014.1 hPa SSW 12.9 km/h 29 km/h 41% 0 mm
18:24 15.5 °C 2.3 °C 1014.1 hPa SW 25.7 km/h 35.4 km/h 41% 0 mm
18:29 15.4 °C 2.6 °C 1014.1 hPa SW 9.7 km/h 25.7 km/h 42% 0 mm
18:34 15.4 °C 2.6 °C 1014.1 hPa SSW 11.3 km/h 25.7 km/h 42% 0 mm
18:39 15.2 °C 2.4 °C 1014.1 hPa SSW 9.7 km/h 24.1 km/h 42% 0 mm
18:44 15.3 °C 2.5 °C 1014.4 hPa SSW 8 km/h 29 km/h 42% 0 mm
18:49 15.2 °C 2.7 °C 1014.1 hPa SSE 9.7 km/h 24.1 km/h 43% 0 mm
18:54 15.3 °C 2.8 °C 1014.1 hPa South 16.1 km/h 27.4 km/h 43% 0 mm
18:59 15.3 °C 2.8 °C 1014.1 hPa SW 8 km/h 24.1 km/h 43% 0 mm
19:04 15.3 °C 2.8 °C 1013.8 hPa SSW 14.5 km/h 29 km/h 43% 0 mm
19:09 15.5 °C 2.6 °C 1013.8 hPa SSW 14.5 km/h 33.8 km/h 42% 0 mm
19:14 15.5 °C 2.6 °C 1013.8 hPa SSW 14.5 km/h 33.8 km/h 42% 0 mm
19:19 15.4 °C 2.6 °C 1013.8 hPa SSW 12.9 km/h 30.6 km/h 42% 0 mm
19:24 15.4 °C 2.9 °C 1014.1 hPa SSW 17.7 km/h 33.8 km/h 43% 0 mm
19:34 15.4 °C 2.9 °C 1014.1 hPa WSW 22.5 km/h 25.7 km/h 43% 0 mm
19:39 15.3 °C 2.8 °C 1014.1 hPa SSW 14.5 km/h 30.6 km/h 43% 0 mm
19:44 15.2 °C 2.7 °C 1014.1 hPa SSW 12.9 km/h 30.6 km/h 43% 0 mm
19:49 15.1 °C 2.9 °C 1014.1 hPa SSW 11.3 km/h 30.6 km/h 44% 0 mm
19:54 15 °C 2.8 °C 1014.1 hPa SSW 11.3 km/h 30.6 km/h 44% 0 mm
19:59 14.9 °C 2.8 °C 1014.1 hPa SW 9.7 km/h 20.9 km/h 44% 0 mm
20:04 14.9 °C 2.8 °C 1013.8 hPa South 8 km/h 24.1 km/h 44% 0 mm
20:09 14.8 °C 2.7 °C 1014.1 hPa SSW 12.9 km/h 27.4 km/h 44% 0 mm
20:19 14.8 °C 2.7 °C 1014.1 hPa South 4.8 km/h 20.9 km/h 44% 0 mm
20:24 14.7 °C 2.9 °C 1014.1 hPa SW 8 km/h 22.5 km/h 45% 0 mm
20:29 14.7 °C 2.9 °C 1014.1 hPa SSW 6.4 km/h 24.1 km/h 45% 0 mm
20:34 14.7 °C 2.6 °C 1013.8 hPa SSW 11.3 km/h 29 km/h 44% 0 mm
20:39 14.7 °C 2.6 °C 1014.1 hPa SSW 12.9 km/h 29 km/h 44% 0 mm
20:49 14.7 °C 2.6 °C 1013.8 hPa SSW 12.9 km/h 24.1 km/h 44% 0 mm
20:59 14.5 °C 2.4 °C 1013.8 hPa SSW 11.3 km/h 27.4 km/h 44% 0 mm
21:04 14.4 °C 2.3 °C 1013.8 hPa SSW 11.3 km/h 25.7 km/h 44% 0 mm
21:09 14.4 °C 2.3 °C 1013.8 hPa SSE 8 km/h 20.9 km/h 44% 0 mm
21:14 14.5 °C 2.4 °C 1014.1 hPa SW 12.9 km/h 27.4 km/h 44% 0 mm
21:19 14.6 °C 2.1 °C 1013.8 hPa SSW 12.9 km/h 22.5 km/h 43% 0 mm
21:24 14.7 °C 2.2 °C 1013.8 hPa SSE 9.7 km/h 25.7 km/h 43% 0 mm
21:29 14.8 °C 2 °C 1014.1 hPa South 12.9 km/h 24.1 km/h 42% 0 mm
21:34 14.9 °C 2.1 °C 1013.8 hPa SW 17.7 km/h 32.2 km/h 42% 0 mm
21:44 14.9 °C 1.8 °C 1013.8 hPa SW 12.9 km/h 30.6 km/h 41% 0 mm
21:49 15 °C 1.8 °C 1014.1 hPa SW 14.5 km/h 32.2 km/h 41% 0 mm
21:54 15 °C 1.5 °C 1013.8 hPa SW 16.1 km/h 32.2 km/h 40% 0 mm
21:59 14.9 °C 1.4 °C 1013.8 hPa SW 14.5 km/h 35.4 km/h 40% 0 mm
22:04 14.9 °C 1.4 °C 1014.1 hPa SW 12.9 km/h 35.4 km/h 40% 0 mm
22:09 15 °C 1.2 °C 1014.1 hPa SW 17.7 km/h 35.4 km/h 39% 0 mm
22:20 15 °C 1.2 °C 1014.1 hPa SW 19.3 km/h 38.6 km/h 39% 0 mm
22:29 14.9 °C 1.1 °C 1014.1 hPa SW 16.1 km/h 40.2 km/h 39% 0 mm
22:34 14.9 °C 1.1 °C 1014.1 hPa SSW 16.1 km/h 27.4 km/h 39% 0 mm
22:39 14.9 °C 1.1 °C 1014.1 hPa SW 20.9 km/h 32.2 km/h 39% 0 mm
22:44 14.8 °C 1 °C 1014.1 hPa SW 16.1 km/h 35.4 km/h 39% 0 mm
22:49 14.7 °C 0.9 °C 1014.1 hPa SW 16.1 km/h 35.4 km/h 39% 0 mm
22:54 14.7 °C 0.9 °C 1014.1 hPa SW 17.7 km/h 33.8 km/h 39% 0 mm
23:04 14.6 °C 1.5 °C 1014.1 hPa SW 17.7 km/h 40.2 km/h 41% 0 mm
23:09 14.6 °C 1.4 °C 1014.1 hPa SSW 14.5 km/h 29 km/h 41% 0 mm
23:14 14.4 °C 1.3 °C 1014.1 hPa West 11.3 km/h 27.4 km/h 41% 0 mm
23:19 14.3 °C 1.6 °C 1014.1 hPa SW 30.6 km/h 33.8 km/h 42% 0 mm
23:24 14.3 °C 1.5 °C 1014.1 hPa SSW 19.3 km/h 30.6 km/h 42% 0 mm
23:29 14.2 °C 1.5 °C 1014.1 hPa SSW 12.9 km/h 35.4 km/h 42% 0 mm
23:34 14.2 °C 1.8 °C 1014.1 hPa SW 24.1 km/h 35.4 km/h 43% 0 mm
23:39 14.2 °C 1.8 °C 1014.1 hPa WSW 20.9 km/h 45.1 km/h 43% 0 mm
23:44 14.1 °C 1.7 °C 1013.8 hPa SW 20.9 km/h 45.1 km/h 43% 0 mm
23:49 14.1 °C 1.7 °C 1013.8 hPa SW 20.9 km/h 41.8 km/h 43% 0 mm
Buffalo, New York, USA
Compliments of Weather Underground - 2.25 mb